This demonstration page uses our WeatherBlox Daily Observations layout. Learn more.

Left ArrowRight Arrow

39.92423, -83.80882

Hourly Observations for March 22, 2017

Temp ( °F °C ) Dew Point ( °F °C ) Humidity (%) Winds ( mph kmh ) Pressure ( in mb ) Visibility ( mi km ) Precip ( " mm )
12:56 am 00:56 Clear 35 1.7 26 -3.3 70 70 N 20 31 30.25 1024 10 16.0934 0 0
1:56 am 01:56 Clear 31 -0.6 22 -5.6 69 69 N 15 24 30.29 1026 10 16.0934 0 0
2:56 am 02:56 Clear 30 -1.1 21 -6.1 69 69 NNE 10 17 30.32 1027 10 16.0934 0 0
3:56 am 03:56 Clear 29 -1.7 19 -7.2 66 66 N 13 20 30.34 1027 10 16.0934 0 0
4:56 am 04:56 Clear 28 -2.2 17 -8.3 63 63 N 18 30 30.34 1028 10 16.0934 0 0
5:56 am 05:56 Clear 26 -3.3 17 -8.3 69 69 NNE 15 24 30.37 1029 10 16.0934 0 0
6:56 am 06:56 Clear 24 -4.4 16 -8.9 71 71 NNE 15 24 30.4 1029 10 16.0934 0 0
7:56 am 07:56 Sunny 23 -5 16 -8.9 74 74 NNE 16 26 30.44 1031 10 16.0934 0 0
8:56 am 08:56 Mostly Sunny 25 -3.9 16 -8.9 69 69 NNE 16 26 30.47 1032 10 16.0934 0 0
9:56 am 09:56 Sunny 27 -2.8 17 -8.3 66 66 NE 14 22 30.5 1033 10 16.0934 0 0
11:56 am 11:56 Mostly Cloudy 31 -0.6 19 -7.2 61 61 NNE 12 19 30.55 1035 10 16.0934 0 0
12:56 pm 12:56 Mostly Sunny 32 0 19 -7.2 59 59 NE 14 22 30.55 1035 10 16.0934 0 0
1:56 pm 13:56 Mostly Sunny 33 0.6 18 -7.8 54 54 NE 12 19 30.55 1034 10 16.0934 0 0
2:56 pm 14:56 Sunny 35 1.7 18 -7.8 50 50 N 12 19 30.53 1034 10 16.0934 0 0
3:56 pm 15:56 Sunny 36 2.2 18 -7.8 48 48 N 9 15 30.5 1033 10 16.0934 0 0
4:56 pm 16:56 Sunny 37 2.8 19 -7.2 48 48 NNE 10 17 30.5 1033 10 16.0934 0 0
5:56 pm 17:56 Sunny 37 2.8 18 -7.8 46 46 NE 9 15 30.5 1033 10 16.0934 0 0
6:56 pm 18:56 Sunny 35 1.7 18 -7.8 50 50 NE 14 22 30.51 1033 10 16.0934 0 0
7:56 pm 19:56 Clear 31 -0.6 20 -6.7 64 64 ENE 12 19 30.51 1033 10 16.0934 0 0
8:56 pm 20:56 Clear 29 -1.7 20 -6.7 69 69 NE 9 15 30.52 1034 10 16.0934 0 0
9:56 pm 21:56 Clear 28 -2.2 20 -6.7 72 72 NE 12 19 30.54 1034 10 16.0934 0 0
10:56 pm 22:56 Clear 27 -2.8 19 -7.2 72 72 NE 12 19 30.53 1034 10 16.0934 0 0
11:56 pm 23:56 Clear 26 -3.3 19 -7.2 75 75 NE 12 19 30.53 1034 10 16.0934 0 0

Powered by AerisWeather